Time;durP1;ratioP1;P1;durP2;ratioP2;P2;SDS_P1;SDS_P2;PMS_P1;PMS_P2;Temp;Humidity;BMP_temperature;BMP_pressure;BME280_temperature;BME280_humidity;BME280_pressure;Samples;Min_cycle;Max_cycle;Signal;HPM_P1;HPM_P2
2023/03/22 00:00:11;;;;;;;14.32;9.07;;;;;;;11.45;100.00;100300.38;5045770;28;20483;-78
2023/03/22 00:02:36;;;;;;;24.52;10.45;;;;;;;11.35;100.00;100295.22;5041549;28;20033;-78
2023/03/22 00:05:02;;;;;;;14.00;8.40;;;;;;;11.33;100.00;100286.44;5067548;28;20040;-78
2023/03/22 00:07:27;;;;;;;15.63;9.13;;;;;;;11.28;100.00;100283.00;5049452;28;20032;-78
2023/03/22 00:09:53;;;;;;;18.45;10.02;;;;;;;11.14;100.00;100272.59;5065604;28;20101;-78
2023/03/22 00:12:18;;;;;;;15.18;9.60;;;;;;;11.00;100.00;100277.16;5057159;28;20037;-78
2023/03/22 00:14:44;;;;;;;17.38;10.10;;;;;;;10.87;100.00;100278.19;5062879;28;20048;-78
2023/03/22 00:17:10;;;;;;;14.55;9.23;;;;;;;10.75;100.00;100284.50;5064018;28;20047;-77
2023/03/22 00:19:36;;;;;;;12.32;8.95;;;;;;;10.64;100.00;100278.47;5059229;28;20041;-77
2023/03/22 00:22:02;;;;;;;15.65;10.40;;;;;;;10.59;100.00;100283.81;5059070;28;20115;-78
2023/03/22 00:24:27;;;;;;;12.82;9.63;;;;;;;10.51;100.00;100283.88;5060663;28;20140;-77
2023/03/22 00:26:53;;;;;;;15.93;9.15;;;;;;;10.52;100.00;100276.81;5047660;28;20076;-77
2023/03/22 00:29:21;;;;;;;15.25;9.55;;;;;;;10.56;100.00;100278.56;5044211;28;20036;-77
2023/03/22 00:31:47;;;;;;;14.88;9.40;;;;;;;10.58;100.00;100276.75;5060604;28;20048;-77
2023/03/22 00:34:13;;;;;;;15.23;9.73;;;;;;;10.50;100.00;100273.31;5061510;28;20085;-77
2023/03/22 00:36:38;;;;;;;16.45;10.68;;;;;;;10.36;100.00;100273.47;5043337;28;20036;-77
2023/03/22 00:39:03;;;;;;;16.98;9.32;;;;;;;10.24;100.00;100274.44;5060649;28;20079;-77
2023/03/22 00:41:29;;;;;;;20.48;11.45;;;;;;;10.13;100.00;100275.41;5061250;28;20072;-77
2023/03/22 00:43:54;;;;;;;15.00;9.70;;;;;;;10.00;100.00;100270.22;5064307;28;20077;-77
2023/03/22 00:46:20;;;;;;;15.35;9.95;;;;;;;9.97;100.00;100264.09;5060834;28;20033;-77
2023/03/22 00:48:46;;;;;;;16.63;10.32;;;;;;;9.90;100.00;100270.28;5061588;28;20036;-77
2023/03/22 00:51:12;;;;;;;14.38;9.70;;;;;;;9.83;100.00;100266.84;5060297;28;20375;-77
2023/03/22 00:53:39;;;;;;;15.10;9.80;;;;;;;9.80;100.00;100285.31;5043990;28;20410;-77
2023/03/22 00:56:05;;;;;;;16.27;10.15;;;;;;;9.81;100.00;100271.25;5060086;28;20043;-77
2023/03/22 00:58:41;;;;;;;17.45;10.63;;;;;;;9.84;100.00;100264.19;5023642;28;20025;-77
2023/03/22 01:01:07;;;;;;;13.80;9.18;;;;;;;9.90;100.00;100268.53;5036634;28;20372;-78
2023/03/22 01:03:33;;;;;;;13.80;8.93;;;;;;;9.92;100.00;100277.31;5048083;28;20127;-77
2023/03/22 01:05:59;;;;;;;15.65;9.27;;;;;;;9.95;100.00;100269.38;5046328;28;20032;-77
2023/03/22 01:08:32;;;;;;;18.95;9.07;;;;;;;9.90;100.00;100262.41;5048786;28;20521;-78
2023/03/22 01:10:57;;;;;;;;;;;;;;;9.85;100.00;100265.97;5065645;28;20653;-77
2023/03/22 01:13:23;;;;;;;19.00;10.93;;;;;;;9.73;100.00;100262.53;5064358;28;19912;-77
2023/03/22 01:15:49;;;;;;;13.23;8.45;;;;;;;9.65;100.00;100263.44;5043273;28;20449;-77
2023/03/22 01:18:15;;;;;;;16.50;9.30;;;;;;;9.58;100.00;100260.84;5065750;22;20044;-75
2023/03/22 01:20:40;;;;;;;14.95;9.13;;;;;;;9.55;100.00;100258.25;5070463;28;20414;-75
2023/03/22 01:23:06;;;;;;;13.38;8.07;;;;;;;9.49;100.00;100256.53;5061627;28;20037;-75
2023/03/22 01:25:32;;;;;;;12.88;9.38;;;;;;;9.46;100.00;100245.13;5066386;28;20028;-74
2023/03/22 01:27:57;;;;;;;13.35;8.68;;;;;;;9.39;100.00;100246.94;5048798;28;20100;-75
2023/03/22 01:30:23;;;;;;;11.50;7.88;;;;;;;9.34;100.00;100238.19;5030462;28;20045;-74
2023/03/22 01:32:49;;;;;;;11.75;7.25;;;;;;;9.27;100.00;100234.69;5029454;28;20044;-75
2023/03/22 01:35:15;;;;;;;11.88;7.65;;;;;;;9.23;100.00;100237.38;5037544;28;20669;-75
2023/03/22 01:37:41;;;;;;;14.50;8.13;;;;;;;9.13;100.00;100232.16;5029646;28;20057;-75
2023/03/22 01:40:10;;;;;;;17.33;9.15;;;;;;;9.10;100.00;100232.16;5045162;28;20042;-74
2023/03/22 01:42:35;;;;;;;13.65;9.00;;;;;;;9.04;100.00;100224.31;5026388;28;20026;-74
2023/03/22 01:45:36;;;;;;;14.68;7.05;;;;;;;9.03;100.00;100225.16;5039914;28;20037;-74
2023/03/22 01:48:14;;;;;;;12.93;7.55;;;;;;;8.97;100.00;100241.00;5045804;28;20041;-74
2023/03/22 01:50:44;;;;;;;15.77;8.55;;;;;;;8.94;100.00;100233.13;5048890;28;20120;-75
2023/03/22 01:53:12;;;;;;;13.52;7.72;;;;;;;8.91;100.00;100231.38;5040940;28;20398;-75
2023/03/22 01:55:39;;;;;;;11.85;7.10;;;;;;;8.89;100.00;100227.00;5028711;28;20120;-75
2023/03/22 01:58:16;;;;;;;10.25;7.63;;;;;;;8.90;100.00;100231.38;5041071;28;20504;-74
2023/03/22 02:00:49;;;;;;;14.48;7.97;;;;;;;8.91;100.00;100234.00;5032363;28;20048;-74
2023/03/22 02:03:36;;;;;;;14.43;7.72;;;;;;;8.97;100.00;100236.59;5046274;28;20040;-74
2023/03/22 02:06:02;;;;;;;14.57;6.25;;;;;;;9.03;100.00;100226.94;5049096;28;20091;-75
2023/03/22 02:08:30;;;;;;;14.13;7.93;;;;;;;9.10;100.00;100223.41;5032338;28;20079;-75
2023/03/22 02:11:03;;;;;;;14.18;7.93;;;;;;;9.10;100.00;100221.63;5028244;28;20492;-75
2023/03/22 02:13:38;;;;;;;14.50;7.47;;;;;;;9.07;100.00;100224.28;5048995;28;20056;-75
2023/03/22 02:16:52;;;;;;;13.00;7.15;;;;;;;9.09;100.00;100217.25;5029566;28;20466;-75
2023/03/22 02:19:41;;;;;;;12.52;6.70;;;;;;;9.05;100.00;100220.78;5028595;28;20472;-75
2023/03/22 02:22:37;;;;;;;13.95;7.05;;;;;;;9.04;100.00;100211.16;5028291;28;20451;-75
2023/03/22 02:25:21;;;;;;;13.00;6.13;;;;;;;9.00;100.00;100217.28;5044883;28;20503;-75
2023/03/22 02:28:07;;;;;;;11.88;7.43;;;;;;;9.00;100.00;100206.75;5035336;28;20036;-75
2023/03/22 02:31:10;;;;;;;12.98;7.35;;;;;;;8.97;100.00;100212.06;5029570;28;20041;-75
2023/03/22 02:33:54;;;;;;;;;;;;;;;8.94;100.00;100214.69;5031307;28;20025;-75
2023/03/22 02:36:29;;;;;;;13.90;5.97;;;;;;;8.90;100.00;100210.31;5037512;28;19920;-75
2023/03/22 02:39:20;;;;;;;10.88;6.57;;;;;;;8.87;100.00;100208.56;5039460;28;20495;-75
2023/03/22 02:42:04;;;;;;;11.93;6.97;;;;;;;8.86;100.00;100212.09;5031701;28;20073;-75
2023/03/22 02:44:54;;;;;;;12.15;7.47;;;;;;;8.84;100.00;100213.00;5037021;28;20030;-75
2023/03/22 02:47:21;;;;;;;10.73;6.93;;;;;;;8.78;100.00;100204.25;5028451;28;20118;-75
2023/03/22 02:50:06;;;;;;;12.77;7.47;;;;;;;8.84;100.00;100213.00;5032596;28;20064;-75
2023/03/22 02:52:46;;;;;;;11.18;5.70;;;;;;;8.84;100.00;100213.00;5032877;28;20052;-75
2023/03/22 02:55:15;;;;;;;12.77;7.07;;;;;;;8.81;100.00;100210.38;5027438;28;20041;-75
2023/03/22 02:57:51;;;;;;;13.70;6.18;;;;;;;8.83;100.00;100203.31;5048037;28;20480;-75
2023/03/22 03:00:18;;;;;;;16.08;7.07;;;;;;;8.83;100.00;100200.69;5043804;28;20038;-75
2023/03/22 03:02:51;;;;;;;11.18;6.85;;;;;;;8.83;100.00;100206.84;5031383;28;20041;-76
2023/03/22 03:05:19;;;;;;;10.07;6.78;;;;;;;8.83;100.00;100208.59;5039302;28;20469;-75
2023/03/22 03:07:50;;;;;;;10.57;5.55;;;;;;;8.82;100.00;100206.84;5031380;28;20068;-75
2023/03/22 03:10:18;;;;;;;13.48;6.50;;;;;;;8.74;100.00;100207.75;5030983;28;20052;-75
2023/03/22 03:12:44;;;;;;;12.10;7.32;;;;;;;8.68;100.00;100201.66;5039563;28;20377;-75
2023/03/22 03:15:22;;;;;;;12.88;6.43;;;;;;;8.58;100.00;100206.06;5031080;28;20033;-75
2023/03/22 03:18:10;;;;;;;13.50;6.57;;;;;;;8.51;100.00;100205.22;5046282;28;20026;-75
2023/03/22 03:21:01;;;;;;;11.18;6.18;;;;;;;8.48;100.00;100215.72;5035118;28;20033;-75
2023/03/22 03:23:38;;;;;;;17.13;7.15;;;;;;;8.40;100.00;100209.63;5027777;28;20103;-75
2023/03/22 03:26:25;;;;;;;10.02;5.72;;;;;;;8.41;100.00;100213.09;5032157;28;20033;-75
2023/03/22 03:29:09;;;;;;;10.27;5.43;;;;;;;8.39;100.00;100215.75;5035475;28;20102;-75
2023/03/22 03:31:42;;;;;;;11.27;6.80;;;;;;;8.40;100.00;100211.38;5030384;28;20137;-75
2023/03/22 03:34:19;;;;;;;;;;;;;;;8.40;100.00;100214.00;5028937;28;20496;-75
2023/03/22 03:37:07;;;;;;;9.90;5.13;;;;;;;8.38;100.00;100216.59;5031878;28;19913;-76
2023/03/22 03:39:38;;;;;;;11.77;5.93;;;;;;;8.35;100.00;100220.09;5029076;28;20051;-75
2023/03/22 03:42:10;;;;;;;11.32;6.60;;;;;;;8.31;100.00;100221.00;5032006;28;20091;-75
2023/03/22 03:44:37;;;;;;;12.32;6.82;;;;;;;8.28;100.00;100215.75;5030606;28;20060;-75
2023/03/22 03:47:05;;;;;;;10.63;5.70;;;;;;;8.27;100.00;100219.25;5031867;28;20041;-75
2023/03/22 03:49:30;;;;;;;11.05;6.45;;;;;;;8.22;100.00;100215.75;5031472;28;20037;-76
2023/03/22 03:51:56;;;;;;;10.18;5.63;;;;;;;8.22;100.00;100223.63;5027867;28;20045;-75
2023/03/22 03:54:22;;;;;;;13.15;6.65;;;;;;;8.18;100.00;100221.91;5038375;28;20034;-75
2023/03/22 03:56:48;;;;;;;12.80;6.55;;;;;;;8.09;100.00;100219.25;5031467;28;20062;-75
2023/03/22 03:59:17;;;;;;;11.38;6.38;;;;;;;8.10;100.00;100221.03;5046638;28;20049;-75
2023/03/22 04:01:50;;;;;;;8.98;5.72;;;;;;;8.08;100.00;100221.03;5039009;28;20215;-75
2023/03/22 04:04:25;;;;;;;;;;;;;;;8.13;100.00;100215.78;5046494;28;20397;-75
2023/03/22 04:06:57;;;;;;;15.55;6.30;;;;;;;8.10;100.00;100215.78;5025708;28;19913;-75
2023/03/22 04:09:28;;;;;;;9.45;5.75;;;;;;;8.02;100.00;100214.91;5029721;28;20529;-75
2023/03/22 04:11:59;;;;;;;12.77;6.10;;;;;;;8.01;100.00;100221.03;5046742;28;20048;-75
2023/03/22 04:14:25;;;;;;;12.07;6.00;;;;;;;8.06;100.00;100214.03;5030244;28;20076;-75
2023/03/22 04:16:53;;;;;;;8.43;5.47;;;;;;;8.10;100.00;100218.41;5029839;28;20488;-75
2023/03/22 04:19:22;;;;;;;11.13;5.97;;;;;;;8.15;100.00;100216.66;5046531;28;20112;-75
2023/03/22 04:21:47;;;;;;;11.38;5.88;;;;;;;8.19;100.00;100214.88;5038759;28;20407;-75
2023/03/22 04:24:13;;;;;;;11.25;6.15;;;;;;;8.28;100.00;100217.50;5032002;28;20033;-75
2023/03/22 04:26:41;;;;;;;8.93;5.43;;;;;;;8.34;100.00;100221.00;5038434;28;20033;-76
2023/03/22 04:29:30;;;;;;;8.27;4.97;;;;;;;8.39;100.00;100210.50;5029594;28;20640;-76
2023/03/22 04:32:02;;;;;;;12.27;6.72;;;;;;;8.47;100.00;100218.38;5042834;28;20713;-76
2023/03/22 04:34:34;;;;;;;10.10;5.57;;;;;;;8.50;100.00;100213.97;5029790;28;20476;-75
2023/03/22 04:37:02;;;;;;;11.45;5.97;;;;;;;8.57;100.00;100204.31;5029733;28;20037;-76
2023/03/22 04:39:33;;;;;;;10.73;6.38;;;;;;;8.61;100.00;100202.53;5046180;28;20668;-76
2023/03/22 04:42:16;;;;;;;10.00;5.75;;;;;;;8.66;100.00;100208.66;5027740;28;20120;-76
2023/03/22 04:44:44;;;;;;;8.98;5.60;;;;;;;8.72;100.00;100208.63;5030768;28;20534;-76
2023/03/22 04:47:10;;;;;;;10.18;5.57;;;;;;;8.74;100.00;100205.13;5029516;28;20071;-74
2023/03/22 04:49:36;;;;;;;12.35;6.07;;;;;;;8.73;100.00;100205.13;5029337;28;20035;-74
2023/03/22 04:52:01;;;;;;;9.50;5.28;;;;;;;8.75;100.00;100204.25;5046280;28;20577;-74
2023/03/22 04:54:36;;;;;;;11.07;6.85;;;;;;;8.74;100.00;100205.13;5025661;28;20184;-74
2023/03/22 04:57:03;;;;;;;9.60;5.53;;;;;;;8.77;100.00;100207.72;5039159;28;20514;-74
2023/03/22 04:59:34;;;;;;;11.18;5.25;;;;;;;8.83;100.00;100206.84;5043544;28;20041;-75
2023/03/22 05:01:59;;;;;;;7.20;4.38;;;;;;;8.90;100.00;100205.06;5046466;28;20033;-73
2023/03/22 05:04:30;;;;;;;12.77;5.05;;;;;;;8.97;100.00;100201.53;5037090;28;20032;-74
2023/03/22 05:07:01;;;;;;;8.98;4.80;;;;;;;9.04;100.00;100199.72;5029361;28;20523;-75
2023/03/22 05:09:38;;;;;;;7.57;4.47;;;;;;;9.06;100.00;100200.59;5033987;28;20124;-75
2023/03/22 05:12:05;;;;;;;8.45;4.75;;;;;;;9.13;100.00;100195.28;5045828;28;20030;-74
2023/03/22 05:14:37;;;;;;;8.32;5.05;;;;;;;9.14;100.00;100196.16;5040215;28;20030;-74
2023/03/22 05:17:04;;;;;;;10.85;5.22;;;;;;;9.16;100.00;100195.25;5044363;28;20042;-74
2023/03/22 05:19:33;;;;;;;6.95;4.65;;;;;;;9.15;100.00;100193.53;5041562;28;20038;-74
2023/03/22 05:22:00;;;;;;;8.38;4.57;;;;;;;9.19;100.00;100194.38;5059992;28;20044;-74
2023/03/22 05:24:38;;;;;;;8.63;4.45;;;;;;;9.25;100.00;100194.34;5036185;28;20376;-74
2023/03/22 05:27:07;;;;;;;10.30;5.82;;;;;;;9.31;100.00;100194.31;5040427;28;20037;-74
2023/03/22 05:29:35;;;;;;;9.05;5.03;;;;;;;9.38;100.00;100189.88;5048977;28;20040;-74
2023/03/22 05:32:08;;;;;;;8.85;4.43;;;;;;;9.44;100.00;100189.84;5048174;28;20120;-74
2023/03/22 05:34:35;;;;;;;9.45;5.03;;;;;;;9.47;100.00;100196.84;5030225;28;20038;-75
2023/03/22 05:37:11;;;;;;;7.90;4.65;;;;;;;9.49;100.00;100198.59;5028911;28;20033;-74
2023/03/22 05:39:46;;;;;;;9.23;5.03;;;;;;;9.54;100.00;100191.53;5031128;28;20035;-74
2023/03/22 05:42:12;;;;;;;8.70;5.32;;;;;;;9.54;100.00;100196.78;5047387;28;20037;-74
2023/03/22 05:44:37;;;;;;;8.57;4.80;;;;;;;9.58;100.00;100187.09;5041204;28;20041;-74
2023/03/22 05:47:07;;;;;;;7.82;4.78;;;;;;;9.61;100.00;100193.19;5049266;28;20029;-74
2023/03/22 05:49:36;;;;;;;13.50;4.45;;;;;;;9.66;100.00;100194.03;5032432;28;20558;-74
2023/03/22 05:52:06;;;;;;;8.65;4.75;;;;;;;9.64;100.00;100182.66;5041240;28;20030;-74
2023/03/22 05:54:54;;;;;;;10.70;5.32;;;;;;;9.69;100.00;100181.72;5031458;28;20053;-74
2023/03/22 05:57:20;;;;;;;11.23;6.38;;;;;;;9.73;100.00;100178.19;5054578;28;20041;-74
2023/03/22 05:59:45;;;;;;;12.45;6.25;;;;;;;9.82;100.00;100173.72;5033615;28;20116;-74
2023/03/22 06:02:17;;;;;;;11.88;5.50;;;;;;;9.88;100.00;100173.66;5049025;28;20120;-75
2023/03/22 06:04:42;;;;;;;11.05;6.32;;;;;;;9.94;100.00;100167.47;5036523;28;20575;-74
2023/03/22 06:07:11;;;;;;;10.00;5.55;;;;;;;10.03;100.00;100174.41;5031880;28;20061;-74
2023/03/22 06:09:50;;;;;;;11.45;6.72;;;;;;;10.10;100.00;100166.41;5048509;28;20873;-74
2023/03/22 06:12:25;;;;;;;12.10;5.90;;;;;;;10.17;100.00;100176.94;5048960;28;20040;-74
2023/03/22 06:14:58;;;;;;;26.70;9.10;;;;;;;10.21;100.00;100173.34;5035609;28;20037;-74
2023/03/22 06:17:39;;;;;;;11.93;6.20;;;;;;;10.24;100.00;100178.59;5033380;28;20033;-74
2023/03/22 06:20:09;;;;;;;9.50;5.25;;;;;;;10.26;100.00;100176.81;5031791;28;20087;-74
2023/03/22 06:22:36;;;;;;;12.38;6.45;;;;;;;10.26;100.00;100182.09;5035451;28;20034;-74
2023/03/22 06:25:03;;;;;;;13.05;6.13;;;;;;;10.28;100.00;100180.34;5040636;28;20120;-74
2023/03/22 06:27:35;;;;;;;9.75;5.78;;;;;;;10.28;100.00;100183.84;5031977;28;20040;-75
2023/03/22 06:30:01;;;;;;;9.60;5.80;;;;;;;10.38;100.00;100189.91;5038340;28;20037;-74
2023/03/22 06:32:26;;;;;;;8.52;5.82;;;;;;;10.44;100.00;100186.31;5023483;28;20040;-74
2023/03/22 06:34:55;;;;;;;8.75;5.70;;;;;;;10.48;100.00;100186.28;5031750;28;20558;-74
2023/03/22 06:37:23;;;;;;;10.27;6.75;;;;;;;10.59;100.00;100195.84;5046891;28;20033;-75
2023/03/22 06:39:50;;;;;;;11.00;5.80;;;;;;;10.70;100.00;100188.66;5047859;28;20033;-74
2023/03/22 06:42:15;;;;;;;9.90;6.40;;;;;;;10.78;100.00;100186.81;5031720;28;20030;-75
2023/03/22 06:44:44;;;;;;;10.02;5.68;;;;;;;10.81;100.00;100186.75;5031540;28;20381;-75
2023/03/22 06:47:16;;;;;;;13.02;7.15;;;;;;;10.80;100.00;100182.38;5028230;28;20060;-74
2023/03/22 06:49:49;;;;;;;12.45;6.38;;;;;;;10.84;100.00;100180.56;5047976;28;20113;-74
2023/03/22 06:52:35;;;;;;;8.55;5.72;;;;;;;10.86;100.00;100178.78;5026341;28;20033;-74
2023/03/22 06:55:01;;;;;;;11.27;6.18;;;;;;;10.88;100.00;100182.28;5048002;28;20402;-74
2023/03/22 06:57:26;;;;;;;9.57;5.18;;;;;;;10.92;100.00;100176.06;5031179;28;20032;-75
2023/03/22 06:59:51;;;;;;;9.20;5.63;;;;;;;11.00;100.00;100182.09;5032272;28;20056;-74
2023/03/22 07:02:17;;;;;;;9.10;5.40;;;;;;;11.03;100.00;100186.47;5047956;28;20644;-74
2023/03/22 07:05:02;;;;;;;10.90;6.00;;;;;;;11.13;100.00;100183.72;5032392;28;20049;-75
2023/03/22 07:07:27;;;;;;;11.85;6.85;;;;;;;11.22;100.00;100177.41;5032361;28;20436;-74
2023/03/22 07:09:53;;;;;;;9.85;6.30;;;;;;;11.37;100.00;100176.28;5030723;28;20122;-75
2023/03/22 07:12:18;;;;;;;10.73;7.07;;;;;;;11.46;100.00;100181.47;5027738;28;20112;-75
2023/03/22 07:14:44;;;;;;;10.45;6.70;;;;;;;11.59;100.00;100175.06;5047262;28;20033;-75
2023/03/22 07:17:29;;;;;;;7.90;5.15;;;;;;;11.70;100.00;100180.19;5031067;28;20041;-74
2023/03/22 07:19:55;;;;;;;11.48;5.97;;;;;;;11.82;100.00;100184.41;5047295;28;20507;-74
2023/03/22 07:22:23;;;;;;;10.73;6.07;;;;;;;11.84;100.00;100177.31;5047486;28;20501;-74
2023/03/22 07:24:51;;;;;;;9.65;5.97;;;;;;;11.94;100.00;100183.34;5123829;22;20042;-78
2023/03/22 07:27:17;;;;;;;9.57;6.05;;;;;;;12.07;100.00;100179.59;5061752;28;20140;-79
2023/03/22 07:29:43;;;;;;;11.05;6.18;;;;;;;12.19;100.00;100183.81;5057344;28;20032;-78
2023/03/22 07:32:10;;;;;;;9.07;5.75;;;;;;;12.34;100.00;100179.97;5059808;28;20036;-78
2023/03/22 07:34:51;;;;;;;9.13;5.47;;;;;;;12.41;100.00;100179.84;5066106;28;20456;-78
2023/03/22 07:37:17;;;;;;;8.40;5.47;;;;;;;12.46;100.00;100182.41;5064746;28;20086;-78
2023/03/22 07:39:43;;;;;;;9.80;5.85;;;;;;;12.57;100.00;100182.19;5075219;28;20086;-79
2023/03/22 07:42:09;;;;;;;9.93;4.95;;;;;;;12.69;100.00;100187.25;5070457;28;20035;-78
2023/03/22 07:44:40;;;;;;;9.30;5.50;;;;;;;12.73;100.00;100186.25;5066791;28;20124;-79
2023/03/22 07:47:38;;;;;;;11.65;5.97;;;;;;;12.84;100.00;100191.38;5067309;28;20047;-78
2023/03/22 07:50:19;;;;;;;13.63;6.07;;;;;;;12.98;100.00;100183.97;5067930;28;20033;-79
2023/03/22 07:52:49;;;;;;;10.35;6.20;;;;;;;13.05;99.80;100180.31;5071821;28;20035;-79
2023/03/22 07:55:15;;;;;;;8.20;5.25;;;;;;;13.20;99.75;100175.56;5060702;28;20037;-79
2023/03/22 07:57:41;;;;;;;11.07;6.30;;;;;;;13.25;100.00;100178.97;5071126;28;20048;-79
2023/03/22 08:00:09;;;;;;;10.45;5.32;;;;;;;13.33;98.45;100183.22;5066242;28;20123;-79
2023/03/22 08:03:02;;;;;;;11.20;5.70;;;;;;;13.26;97.06;100181.63;5070150;28;20043;-79
2023/03/22 08:05:57;;;;;;;;;;;;;;;13.31;97.47;100185.06;5064383;28;20040;-78
2023/03/22 08:08:23;;;;;;;13.25;6.22;;;;;;;13.30;96.84;100177.13;5071917;28;19923;-78
2023/03/22 08:10:49;;;;;;;7.25;4.65;;;;;;;13.16;94.94;100188.88;5074345;28;20029;-78
2023/03/22 08:13:15;;;;;;;9.73;5.70;;;;;;;13.13;96.21;100183.66;5072482;28;20039;-78
2023/03/22 08:15:42;;;;;;;9.15;5.78;;;;;;;13.15;97.07;100173.91;5067159;28;20028;-78
2023/03/22 08:18:07;;;;;;;10.65;5.93;;;;;;;13.15;96.74;100168.59;5071816;28;20032;-78
2023/03/22 08:20:37;;;;;;;7.10;5.20;;;;;;;13.32;97.09;100170.88;5069810;28;20194;-78
2023/03/22 08:23:11;;;;;;;8.40;5.00;;;;;;;13.51;96.44;100167.78;5070678;28;20054;-79
2023/03/22 08:26:02;;;;;;;7.50;5.03;;;;;;;13.64;95.30;100165.72;5073076;28;20033;-78
2023/03/22 08:28:27;;;;;;;10.88;6.38;;;;;;;13.77;92.72;100156.53;5067483;28;20028;-78
2023/03/22 08:30:53;;;;;;;7.70;4.97;;;;;;;13.99;93.33;100151.56;5074212;28;20032;-78
2023/03/22 08:33:22;;;;;;;8.48;5.28;;;;;;;14.11;89.80;100151.22;5062169;28;20486;-79
2023/03/22 08:35:48;;;;;;;9.85;5.00;;;;;;;14.40;91.31;100152.22;5062221;28;20025;-79
2023/03/22 08:38:14;;;;;;;10.48;5.85;;;;;;;14.61;91.22;100143.69;5062780;28;20025;-78
2023/03/22 08:40:45;;;;;;;13.60;6.45;;;;;;;14.62;89.32;100147.22;5070173;28;20563;-78
2023/03/22 08:43:11;;;;;;;11.38;7.93;;;;;;;14.75;90.48;100145.97;5060163;28;20045;-78
2023/03/22 08:45:37;;;;;;;12.50;8.13;;;;;;;14.78;88.20;100159.13;5061271;28;20755;-79
2023/03/22 08:48:08;;;;;;;12.27;7.07;;;;;;;14.84;87.69;100161.59;5069164;28;20448;-79
2023/03/22 08:50:52;;;;;;;12.18;5.60;;;;;;;14.79;86.75;100152.03;5068471;28;20105;-78
2023/03/22 08:53:25;;;;;;;10.75;4.93;;;;;;;14.84;86.56;100156.28;5064772;28;20498;-79
2023/03/22 08:56:03;;;;;;;9.10;4.90;;;;;;;14.95;86.76;100150.66;5075299;28;20119;-78
2023/03/22 08:58:45;;;;;;;13.57;4.90;;;;;;;15.11;87.69;100146.59;5071113;28;20088;-79
2023/03/22 09:01:26;;;;;;;8.43;4.88;;;;;;;15.12;86.40;100152.81;5067111;28;20655;-78
2023/03/22 09:03:56;;;;;;;9.40;5.45;;;;;;;15.17;85.52;100155.31;5076210;28;20032;-78
2023/03/22 09:06:24;;;;;;;11.07;5.80;;;;;;;15.20;85.75;100142.81;5077279;28;20029;-79
2023/03/22 09:08:51;;;;;;;8.93;5.40;;;;;;;15.21;84.46;100146.34;5086331;28;20024;-79
2023/03/22 09:11:19;;;;;;;10.18;5.30;;;;;;;15.04;82.81;100149.53;5066699;28;20032;-78
2023/03/22 09:13:50;;;;;;;8.38;5.00;;;;;;;15.12;83.19;100135.06;5076685;28;20436;-78
2023/03/22 09:16:16;;;;;;;8.80;4.75;;;;;;;15.20;81.66;100139.28;5065812;28;20578;-78
2023/03/22 09:18:43;;;;;;;7.35;4.50;;;;;;;15.17;82.61;100134.94;5066785;28;20062;-78
2023/03/22 09:21:13;;;;;;;8.27;4.50;;;;;;;15.26;81.45;100129.31;5071666;28;20032;-78
2023/03/22 09:23:47;;;;;;;15.15;6.20;;;;;;;15.20;79.93;100133.97;5069110;28;20410;-78
2023/03/22 09:26:14;;;;;;;9.15;4.97;;;;;;;15.15;80.53;100135.91;5075809;28;20037;-78
2023/03/22 09:28:40;;;;;;;8.05;4.65;;;;;;;14.99;81.35;100125.75;5067894;28;20024;-78
2023/03/22 09:31:09;;;;;;;8.93;5.03;;;;;;;14.87;82.66;100128.75;5067097;28;20503;-79
2023/03/22 09:33:36;;;;;;;8.52;4.47;;;;;;;14.76;82.29;100134.41;5067671;28;20029;-78
2023/03/22 09:36:02;;;;;;;10.50;5.10;;;;;;;14.82;82.64;100128.91;5075791;28;20036;-79
2023/03/22 09:38:32;;;;;;;8.35;4.05;;;;;;;14.86;83.14;100121.72;5083537;28;20159;-78
2023/03/22 09:41:01;;;;;;;9.10;4.28;;;;;;;14.77;83.12;100124.63;5079266;28;20476;-78
2023/03/22 09:43:35;;;;;;;6.75;4.47;;;;;;;14.54;83.03;100122.66;5065386;28;20033;-78
2023/03/22 09:46:07;;;;;;;9.05;5.38;;;;;;;14.39;85.47;100111.53;5072122;28;20458;-78
2023/03/22 09:48:36;;;;;;;9.35;4.72;;;;;;;14.32;85.33;100112.63;5071913;28;20036;-78
2023/03/22 09:51:04;;;;;;;12.18;7.75;;;;;;;14.39;85.80;100114.19;5067398;28;20064;-78
2023/03/22 09:53:31;;;;;;;13.40;7.30;;;;;;;14.35;86.24;100103.69;5068179;28;20079;-78
2023/03/22 09:56:15;;;;;;;8.23;4.93;;;;;;;14.48;86.14;100100.63;5068878;28;20040;-79
2023/03/22 09:59:05;;;;;;;11.52;5.00;;;;;;;14.57;85.70;100098.69;5068269;28;20036;-79
2023/03/22 10:02:00;;;;;;;8.07;4.80;;;;;;;14.72;87.88;100089.38;5064656;28;20044;-78
2023/03/22 10:04:31;;;;;;;12.43;5.45;;;;;;;14.84;83.79;100094.31;5073097;28;20060;-78
2023/03/22 10:07:06;;;;;;;7.20;4.57;;;;;;;14.79;82.86;100090.94;5073965;28;20446;-78
2023/03/22 10:09:47;;;;;;;7.50;4.43;;;;;;;14.82;82.65;100086.38;5074169;28;20056;-78
2023/03/22 10:12:25;;;;;;;20.88;7.03;;;;;;;14.87;82.90;100084.47;5068862;28;20032;-79
2023/03/22 10:15:02;;;;;;;18.00;11.10;;;;;;;15.06;82.93;100090.09;5067047;28;20090;-79
2023/03/22 10:17:28;;;;;;;10.52;4.93;;;;;;;15.22;83.23;100079.84;5064295;28;20081;-78
2023/03/22 10:19:59;;;;;;;8.18;4.82;;;;;;;15.18;82.35;100082.63;5067654;28;20367;-79
2023/03/22 10:22:35;;;;;;;9.55;4.57;;;;;;;15.25;79.77;100078.88;5067745;28;20487;-79
2023/03/22 10:25:01;;;;;;;6.63;4.35;;;;;;;15.24;79.55;100067.34;5068430;28;20501;-79
2023/03/22 10:27:29;;;;;;;7.38;4.07;;;;;;;15.33;77.71;100069.72;5065373;28;20457;-79
2023/03/22 10:30:00;;;;;;;7.47;4.25;;;;;;;15.37;78.54;100065.16;5076010;28;20028;-79
2023/03/22 10:32:40;;;;;;;7.68;3.97;;;;;;;15.42;78.18;100059.69;5078682;28;20040;-80
2023/03/22 10:35:07;;;;;;;9.70;4.80;;;;;;;15.52;80.21;100055.81;5070042;28;20037;-79
2023/03/22 10:37:34;;;;;;;7.93;4.38;;;;;;;15.66;78.65;100053.53;5070918;28;20124;-79
2023/03/22 10:40:08;;;;;;;7.28;4.60;;;;;;;15.69;76.58;100057.91;5070925;28;20036;-79
2023/03/22 10:42:38;;;;;;;9.07;5.60;;;;;;;15.86;77.54;100054.66;5066510;28;20107;-79
2023/03/22 10:45:14;;;;;;;8.68;5.47;;;;;;;16.02;76.95;100047.88;5068097;28;20044;-79
2023/03/22 10:47:48;;;;;;;10.57;6.25;;;;;;;16.28;76.74;100046.03;5066265;28;20040;-79
2023/03/22 10:50:20;;;;;;;7.47;4.68;;;;;;;16.60;75.43;100036.81;5068966;28;20521;-78
2023/03/22 10:53:11;;;;;;;7.85;3.65;;;;;;;16.80;73.71;100038.75;5070680;28;20040;-78
2023/03/22 10:55:41;;;;;;;6.47;3.22;;;;;;;16.95;70.74;100031.91;5070711;28;20041;-79
2023/03/22 10:58:13;;;;;;;5.97;3.30;;;;;;;16.99;70.01;100038.88;5074198;28;20037;-79
2023/03/22 11:01:00;;;;;;;7.80;3.55;;;;;;;17.02;70.37;100022.75;5081358;28;20044;-79
2023/03/22 11:03:35;;;;;;;6.32;3.78;;;;;;;16.96;68.93;100018.53;5071294;28;20094;-78
2023/03/22 11:06:09;;;;;;;8.23;3.20;;;;;;;16.97;69.23;100022.06;5069887;28;20029;-79
2023/03/22 11:08:49;;;;;;;6.05;3.40;;;;;;;17.06;70.61;100017.22;5077053;28;20040;-78
2023/03/22 11:11:26;;;;;;;8.02;4.13;;;;;;;17.29;69.60;100018.06;5071562;28;20071;-78
2023/03/22 11:13:55;;;;;;;8.68;3.70;;;;;;;17.46;70.26;100007.56;5072484;28;20151;-78
2023/03/22 11:16:21;;;;;;;7.20;3.70;;;;;;;17.62;69.00;100017.56;5068204;28;20112;-79
2023/03/22 11:18:47;;;;;;;5.90;3.58;;;;;;;17.47;67.84;100003.94;5069822;28;20518;-79
2023/03/22 11:21:16;;;;;;;7.03;3.28;;;;;;;17.57;68.58;100008.88;5070140;28;20037;-78
2023/03/22 11:23:51;;;;;;;5.80;2.75;;;;;;;17.72;66.32;99995.75;5072770;28;20040;-78
2023/03/22 11:26:26;;;;;;;8.45;2.60;;;;;;;17.93;64.97;99982.41;5074621;28;20040;-78
2023/03/22 11:28:59;;;;;;;5.32;2.40;;;;;;;17.93;63.49;99996.63;5078922;28;20028;-79
2023/03/22 11:31:24;;;;;;;3.38;1.50;;;;;;;17.86;62.39;99994.28;5070525;28;20032;-79
2023/03/22 11:33:59;;;;;;;3.38;1.52;;;;;;;17.73;60.67;99991.25;5068939;28;20047;-79
2023/03/22 11:36:25;;;;;;;6.18;1.63;;;;;;;17.52;62.14;99985.94;5077523;28;20028;-79
2023/03/22 11:39:05;;;;;;;5.55;1.52;;;;;;;17.41;62.49;99987.34;5074685;28;20020;-79